Time;durP1;ratioP1;P1;durP2;ratioP2;P2;SDS_P1;SDS_P2;PMS_P1;PMS_P2;Temp;Humidity;BMP_temperature;BMP_pressure;BME280_temperature;BME280_humidity;BME280_pressure;Samples;Min_cycle;Max_cycle;Signal;HPM_P1;HPM_P2
2023/03/19 05:30:26;;;;;;;6.00;3.08;;;11.40;79.80;;;;;;6105804;23;20116;31
2023/03/19 05:32:52;;;;;;;5.80;3.08;;;11.40;79.80;;;;;;4951420;28;20122;-76
2023/03/19 05:35:18;;;;;;;5.50;3.08;;;11.40;79.80;;;;;;4954104;29;20086;-76
2023/03/19 05:37:44;;;;;;;6.30;3.03;;;11.40;80.00;;;;;;4956876;29;20632;-76
2023/03/19 05:40:11;;;;;;;8.77;2.90;;;11.40;80.10;;;;;;4939563;29;20023;-75
2023/03/19 05:42:37;;;;;;;8.57;2.95;;;11.30;80.50;;;;;;4956539;28;20133;-76
2023/03/19 05:45:04;;;;;;;3.97;2.17;;;11.40;80.50;;;;;;4940072;29;20102;-76
2023/03/19 05:47:30;;;;;;;3.60;1.90;;;11.30;80.30;;;;;;4941181;29;20063;-76
2023/03/19 05:49:56;;;;;;;5.30;2.15;;;11.30;80.50;;;;;;4960363;29;20756;-76
2023/03/19 05:52:21;;;;;;;4.32;2.08;;;11.30;80.60;;;;;;4960408;29;20085;-76
2023/03/19 05:54:48;;;;;;;2.97;1.95;;;11.30;80.60;;;;;;4942937;29;20062;-76
2023/03/19 05:57:15;;;;;;;5.88;2.38;;;11.40;80.70;;;;;;4959204;29;20026;-76
2023/03/19 05:59:41;;;;;;;4.10;2.15;;;11.40;80.60;;;;;;4960100;29;20163;-76
2023/03/19 06:02:06;;;;;;;4.28;2.13;;;11.40;80.70;;;;;;4956928;29;20764;-76
2023/03/19 06:04:32;;;;;;;3.20;2.30;;;11.50;80.50;;;;;;4957196;29;20035;-76
2023/03/19 06:06:58;;;;;;;5.65;2.50;;;11.40;80.40;;;;;;4960349;29;20031;-76
2023/03/19 06:09:24;;;;;;;3.80;1.98;;;11.50;80.40;;;;;;4959973;29;20027;-76
2023/03/19 06:11:49;;;;;;;2.75;2.22;;;11.50;80.40;;;;;;4955593;29;20035;-76
2023/03/19 06:14:15;;;;;;;8.15;2.35;;;11.50;80.30;;;;;;4940850;29;20039;-76
2023/03/19 06:16:41;;;;;;;4.88;2.33;;;11.40;80.40;;;;;;4955162;29;20062;-76
2023/03/19 06:19:07;;;;;;;6.88;2.20;;;11.40;80.40;;;;;;4960090;29;20058;-76
2023/03/19 06:21:32;;;;;;;4.97;1.73;;;11.40;80.40;;;;;;4951342;29;20028;-77
2023/03/19 06:23:58;;;;;;;4.43;1.88;;;11.40;80.20;;;;;;4939591;29;20066;-76
2023/03/19 06:26:27;;;;;;;5.15;2.10;;;11.30;80.30;;;;;;4942486;29;20026;-76
2023/03/19 06:28:53;;;;;;;5.45;2.03;;;11.40;80.20;;;;;;4955433;29;20039;-76
2023/03/19 06:31:18;;;;;;;5.28;2.00;;;11.30;80.10;;;;;;4940503;29;20052;-76
2023/03/19 06:33:44;;;;;;;7.40;2.45;;;11.30;80.00;;;;;;4953084;29;20093;-76
2023/03/19 06:36:10;;;;;;;3.13;2.17;;;11.40;79.90;;;;;;4946206;28;20028;-76
2023/03/19 06:38:36;;;;;;;9.50;2.40;;;11.40;79.80;;;;;;4942068;29;20042;-76
2023/03/19 06:41:02;;;;;;;5.28;1.90;;;11.30;79.70;;;;;;4939419;29;20032;-76
2023/03/19 06:43:28;;;;;;;7.78;2.00;;;11.30;79.60;;;;;;4940598;29;20111;-76
2023/03/19 06:45:54;;;;;;;4.80;1.92;;;11.40;79.50;;;;;;4940507;29;20071;-76
2023/03/19 06:48:19;;;;;;;6.40;1.98;;;11.40;79.40;;;;;;4940350;29;20028;-76
2023/03/19 06:50:45;;;;;;;3.22;2.13;;;11.40;79.30;;;;;;4939163;29;20036;-76
2023/03/19 06:53:12;;;;;;;6.68;2.10;;;11.50;79.30;;;;;;4940351;29;20042;-76
2023/03/19 06:55:38;;;;;;;3.45;1.88;;;11.50;79.30;;;;;;4940079;29;20034;-76
2023/03/19 06:58:04;;;;;;;4.63;1.98;;;11.50;79.30;;;;;;4940308;29;20056;-76
2023/03/19 07:00:30;;;;;;;5.50;2.28;;;11.50;79.30;;;;;;4940196;29;20012;-76
2023/03/19 07:02:56;;;;;;;8.02;2.25;;;11.50;79.30;;;;;;4946244;29;20035;-77
2023/03/19 07:05:21;;;;;;;5.22;2.05;;;11.60;79.10;;;;;;4958510;29;20019;-77
2023/03/19 07:07:47;;;;;;;7.28;1.95;;;11.60;79.00;;;;;;4959393;29;20035;-76
2023/03/19 07:10:12;;;;;;;6.70;2.15;;;11.70;78.90;;;;;;4941946;29;20550;-77
2023/03/19 07:12:38;;;;;;;3.83;1.85;;;11.70;78.50;;;;;;4959295;29;20033;-77
2023/03/19 07:15:04;;;;;;;3.00;1.55;;;11.70;78.50;;;;;;4942014;29;20078;-77
2023/03/19 07:17:30;;;;;;;5.10;2.50;;;11.60;78.40;;;;;;4939891;29;20398;-78
2023/03/19 07:19:56;;;;;;;4.72;1.90;;;11.70;78.00;;;;;;4940311;29;20035;-77
2023/03/19 07:22:21;;;;;;;2.30;1.60;;;11.80;77.80;;;;;;4957745;29;20031;-80
2023/03/19 07:24:47;;;;;;;4.05;2.03;;;11.70;77.40;;;;;;4954196;28;20034;-77
2023/03/19 07:27:13;;;;;;;3.20;1.77;;;11.80;77.40;;;;;;4956098;28;20043;-80
2023/03/19 07:29:38;;;;;;;6.18;2.20;;;12.10;76.50;;;;;;4959124;29;20030;-78
2023/03/19 07:32:04;;;;;;;9.65;2.50;;;13.00;74.60;;;;;;4937649;29;20056;-78
2023/03/19 07:34:30;;;;;;;5.45;1.95;;;13.30;73.40;;;;;;4939389;29;20032;-77
2023/03/19 07:36:56;;;;;;;3.83;1.40;;;14.80;70.50;;;;;;4939853;29;20044;-79
2023/03/19 07:39:21;;;;;;;3.42;1.33;;;17.10;63.30;;;;;;4938187;29;20032;-78
2023/03/19 07:41:48;;;;;;;3.58;1.80;;;19.00;57.30;;;;;;4938910;29;20032;-77
2023/03/19 07:44:14;;;;;;;4.63;1.65;;;20.50;52.70;;;;;;4938757;29;20051;-77
2023/03/19 07:46:40;;;;;;;4.90;1.48;;;21.70;49.70;;;;;;4937780;29;20031;-78
2023/03/19 07:49:06;;;;;;;3.22;1.33;;;22.60;46.50;;;;;;4934883;29;20042;-77
2023/03/19 07:51:32;;;;;;;7.63;1.80;;;23.20;45.00;;;;;;4937345;29;20032;-78
2023/03/19 07:53:58;;;;;;;5.07;1.48;;;23.90;45.20;;;;;;4938967;29;20376;-78
2023/03/19 07:56:24;;;;;;;2.75;1.02;;;24.50;42.10;;;;;;4934257;29;20020;-79
2023/03/19 07:58:50;;;;;;;4.35;1.20;;;24.50;41.50;;;;;;4934416;29;20028;-79
2023/03/19 08:01:16;;;;;;;3.88;1.27;;;24.30;40.40;;;;;;4918409;29;20046;-79
2023/03/19 08:03:42;;;;;;;3.53;1.40;;;24.50;40.50;;;;;;4948657;29;20110;-77
2023/03/19 08:06:08;;;;;;;5.78;1.20;;;24.80;39.80;;;;;;4920800;29;20068;-79
2023/03/19 08:08:33;;;;;;;6.13;1.52;;;24.70;39.70;;;;;;4927149;29;20024;-80
2023/03/19 08:11:08;;;;;;;4.53;1.33;;;24.80;39.40;;;;;;4938118;29;20159;-77
2023/03/19 08:13:47;;;;;;;6.50;1.20;;;24.40;39.30;;;;;;4936848;29;20024;-78
2023/03/19 08:16:13;;;;;;;4.03;0.98;;;24.00;39.10;;;;;;4919596;29;20399;-80
2023/03/19 08:19:14;;;;;;;4.82;1.33;;;24.00;39.50;;;;;;4936990;29;20027;-81
2023/03/19 08:22:09;;;;;;;4.85;1.30;;;22.80;41.40;;;;;;4936717;29;20063;-79
2023/03/19 08:24:36;;;;;;;4.97;1.42;;;21.90;42.30;;;;;;4875360;29;20531;-77
2023/03/19 08:27:02;;;;;;;6.00;1.05;;;22.60;40.80;;;;;;4938086;29;20079;-76
2023/03/19 08:29:28;;;;;;;5.55;1.05;;;22.60;40.70;;;;;;4904503;29;20515;-78
2023/03/19 08:31:57;;;;;;;4.38;1.10;;;22.00;40.40;;;;;;4951480;29;20051;-77
2023/03/19 08:34:23;;;;;;;4.20;1.10;;;21.70;42.00;;;;;;4959356;28;20122;-78
2023/03/19 08:36:49;;;;;;;5.22;1.30;;;21.10;43.10;;;;;;4941287;29;20031;-77
2023/03/19 08:39:15;;;;;;;5.05;1.15;;;19.60;45.10;;;;;;4940356;29;20031;-78
2023/03/19 08:41:41;;;;;;;7.93;1.10;;;19.40;44.20;;;;;;4955344;29;20024;-78
2023/03/19 08:44:06;;;;;;;2.72;1.10;;;20.40;43.90;;;;;;4933586;29;20035;-78
2023/03/19 08:46:32;;;;;;;2.08;0.77;;;20.90;43.20;;;;;;4955836;29;20023;-78
2023/03/19 08:48:59;;;;;;;8.43;1.25;;;20.30;42.70;;;;;;4953857;29;20027;-77
2023/03/19 08:51:25;;;;;;;4.75;1.15;;;19.50;43.40;;;;;;4939252;29;20030;-79
2023/03/19 08:53:51;;;;;;;8.50;1.90;;;18.60;45.50;;;;;;4956106;29;20401;-80
2023/03/19 08:56:17;;;;;;;4.88;1.30;;;18.10;45.80;;;;;;4955292;29;20031;-79
2023/03/19 08:58:42;;;;;;;4.53;0.85;;;19.80;44.70;;;;;;4955395;28;20080;-79
2023/03/19 09:01:10;;;;;;;4.55;1.10;;;19.10;44.80;;;;;;4939168;29;20063;-79
2023/03/19 09:03:37;;;;;;;2.88;1.15;;;18.70;43.00;;;;;;4932521;29;20119;-79
2023/03/19 09:06:06;;;;;;;1.42;0.80;;;18.30;43.90;;;;;;4953745;29;20059;-80
2023/03/19 09:08:32;;;;;;;5.63;1.53;;;18.70;44.20;;;;;;4955199;29;20517;-80
2023/03/19 09:10:58;;;;;;;5.45;1.10;;;18.30;44.30;;;;;;4954880;29;20024;-78
2023/03/19 09:13:24;;;;;;;4.40;0.88;;;17.60;43.80;;;;;;4939080;29;20030;-79
2023/03/19 09:15:50;;;;;;;4.03;1.23;;;17.10;45.30;;;;;;4955680;28;20039;-78
2023/03/19 09:18:16;;;;;;;6.32;1.73;;;16.80;45.10;;;;;;4959217;28;20023;-79
2023/03/19 09:20:42;;;;;;;3.33;0.80;;;17.40;45.20;;;;;;4957804;29;20382;-78
2023/03/19 09:23:08;;;;;;;3.38;1.00;;;17.10;45.50;;;;;;4960211;29;20030;-79
2023/03/19 09:25:34;;;;;;;5.45;1.45;;;16.80;46.50;;;;;;4939966;28;20031;-79
2023/03/19 09:28:00;;;;;;;3.80;0.90;;;18.30;45.50;;;;;;4944383;29;20045;-79
2023/03/19 09:30:26;;;;;;;5.13;0.98;;;17.80;44.90;;;;;;4940485;29;20031;-77
2023/03/19 09:32:51;;;;;;;4.00;1.20;;;17.60;45.80;;;;;;4945405;29;20130;-78
2023/03/19 09:35:17;;;;;;;3.00;1.20;;;17.30;45.40;;;;;;4924291;29;20035;-78
2023/03/19 09:37:43;;;;;;;5.20;0.93;;;17.10;46.10;;;;;;4945107;29;20390;-78
2023/03/19 09:40:40;;;;;;;3.88;1.08;;;16.80;45.90;;;;;;4947534;29;20031;-77
2023/03/19 09:43:12;;;;;;;6.20;1.00;;;16.60;47.80;;;;;;4951369;29;20019;-77
2023/03/19 09:45:38;;;;;;;3.20;0.95;;;16.30;47.10;;;;;;4951265;29;20031;-77
2023/03/19 09:48:11;;;;;;;6.63;1.25;;;16.20;47.80;;;;;;4930711;29;20576;-82
2023/03/19 09:50:37;;;;;;;6.82;1.33;;;16.00;48.80;;;;;;4943130;29;20027;-77
2023/03/19 09:53:24;;;;;;;5.50;1.25;;;15.90;49.80;;;;;;4937568;29;20032;-78
2023/03/19 09:55:52;;;;;;;4.10;1.35;;;15.90;49.10;;;;;;4930284;29;20031;-79
2023/03/19 09:58:21;;;;;;;3.95;0.80;;;15.90;48.90;;;;;;4939958;29;20027;-77
2023/03/19 10:00:51;;;;;;;7.10;1.30;;;15.70;48.50;;;;;;4945530;29;20032;-76
2023/03/19 10:03:32;;;;;;;7.40;1.15;;;15.80;49.00;;;;;;4942171;29;20023;-77
2023/03/19 10:05:57;;;;;;;4.80;1.35;;;15.80;49.00;;;;;;4929192;29;20035;-76
2023/03/19 10:08:47;;;;;;;4.35;1.58;;;16.30;48.70;;;;;;4943799;29;20151;-75
2023/03/19 10:11:26;;;;;;;2.10;1.15;;;17.40;47.50;;;;;;4945906;29;20028;-74
2023/03/19 10:13:58;;;;;;;3.10;1.35;;;17.80;46.00;;;;;;4944639;29;20031;-75
2023/03/19 10:16:26;;;;;;;7.13;1.75;;;18.10;45.60;;;;;;4937751;29;20032;-74
2023/03/19 10:18:58;;;;;;;5.82;1.20;;;18.00;44.20;;;;;;4930833;29;20506;-77
2023/03/19 10:21:30;;;;;;;3.40;0.93;;;17.90;45.50;;;;;;4945774;29;20078;-75
2023/03/19 10:24:05;;;;;;;4.28;1.25;;;17.90;44.60;;;;;;4943069;29;20394;-76
2023/03/19 10:26:36;;;;;;;6.55;1.63;;;17.60;44.10;;;;;;4943744;29;20525;-74
2023/03/19 10:29:07;;;;;;;3.55;1.05;;;17.30;44.70;;;;;;4930176;29;20031;-75
2023/03/19 10:31:50;;;;;;;5.60;1.15;;;16.90;45.30;;;;;;4928174;29;20059;-75
2023/03/19 10:34:27;;;;;;;2.28;0.85;;;16.50;45.90;;;;;;4956387;28;20032;-79
2023/03/19 10:37:02;;;;;;;7.22;1.05;;;16.10;44.70;;;;;;4966631;28;20529;-78
2023/03/19 10:39:31;;;;;;;5.63;1.65;;;15.90;44.80;;;;;;4952309;28;20030;-78
2023/03/19 10:42:04;;;;;;;2.10;0.90;;;15.80;46.40;;;;;;4956749;29;20046;-76
2023/03/19 10:44:59;;;;;;;3.45;1.60;;;15.60;47.10;;;;;;4948744;28;20446;-76
2023/03/19 10:47:26;;;;;;;4.40;1.30;;;15.60;46.80;;;;;;4954056;28;20127;-76
2023/03/19 10:49:55;;;;;;;3.47;0.77;;;15.70;47.20;;;;;;4955577;29;20255;-75
2023/03/19 10:52:31;;;;;;;5.70;1.38;;;15.90;47.30;;;;;;4957563;29;20106;-75
2023/03/19 10:55:11;;;;;;;5.57;1.17;;;15.90;46.30;;;;;;4957267;29;20032;-76
2023/03/19 10:57:40;;;;;;;;;;;16.20;47.80;;;;;;4954185;29;20024;-75
2023/03/19 11:00:14;;;;;;;3.70;1.10;;;16.50;45.90;;;;;;4958497;28;19917;-76
2023/03/19 11:02:49;;;;;;;2.92;1.25;;;16.80;46.10;;;;;;4954347;28;20019;-75
2023/03/19 11:05:28;;;;;;;5.03;1.35;;;16.90;46.20;;;;;;4941500;29;20034;-76
2023/03/19 11:08:17;;;;;;;3.20;0.73;;;16.80;45.80;;;;;;4953183;28;20449;-76
2023/03/19 11:10:48;;;;;;;3.55;0.90;;;16.70;46.30;;;;;;4955150;28;20082;-76
2023/03/19 11:13:17;;;;;;;3.10;1.40;;;16.70;46.40;;;;;;4958401;28;20043;-76
2023/03/19 11:15:47;;;;;;;2.67;1.13;;;16.80;46.80;;;;;;4956939;29;20468;-76
2023/03/19 11:18:35;;;;;;;3.08;1.20;;;16.70;46.30;;;;;;4948796;29;20289;-76
2023/03/19 11:21:28;;;;;;;3.55;1.52;;;16.70;46.60;;;;;;4954514;28;20549;-76
2023/03/19 11:24:00;;;;;;;4.22;1.20;;;16.70;45.30;;;;;;4936264;29;20146;-75
2023/03/19 11:26:27;;;;;;;5.70;1.58;;;16.60;44.00;;;;;;4954798;29;20019;-74
2023/03/19 11:28:56;;;;;;;4.57;1.30;;;16.50;44.80;;;;;;4940062;29;20130;-74
2023/03/19 11:31:48;;;;;;;3.95;1.30;;;16.50;45.50;;;;;;4934767;29;20087;-77
2023/03/19 11:34:19;;;;;;;2.97;1.08;;;16.40;45.60;;;;;;4937624;29;20429;-77
2023/03/19 11:36:57;;;;;;;2.00;1.20;;;16.00;44.10;;;;;;4946454;28;20019;-75
2023/03/19 11:39:57;;;;;;;2.20;0.80;;;15.90;45.00;;;;;;4955703;29;20027;-78
2023/03/19 11:42:55;;;;;;;4.93;1.83;;;15.80;46.10;;;;;;4910633;28;20039;-77
2023/03/19 11:45:21;;;;;;;5.75;1.33;;;15.70;46.50;;;;;;4942192;29;20414;-78
2023/03/19 11:47:52;;;;;;;6.13;1.67;;;15.60;46.00;;;;;;4949041;28;20027;-76
2023/03/19 11:50:43;;;;;;;4.13;1.25;;;15.70;45.70;;;;;;4956922;29;20413;-77
2023/03/19 11:53:28;;;;;;;3.33;0.98;;;15.60;46.00;;;;;;4959994;28;20074;-79
2023/03/19 11:56:06;;;;;;;5.70;1.30;;;15.60;46.50;;;;;;4949384;28;20487;-79
2023/03/19 11:59:16;;;;;;;8.68;2.25;;;15.70;46.30;;;;;;4957641;29;20062;-77
2023/03/19 12:02:06;;;;;;;5.57;1.07;;;15.90;46.40;;;;;;4958558;29;20027;-78
2023/03/19 12:04:46;;;;;;;7.43;0.98;;;15.90;45.50;;;;;;4958086;29;20119;-78
2023/03/19 12:07:14;;;;;;;5.43;1.33;;;15.80;46.10;;;;;;4950081;28;20508;-79
2023/03/19 12:09:48;;;;;;;5.60;1.42;;;15.90;46.50;;;;;;4969901;28;20578;-78
2023/03/19 12:12:37;;;;;;;3.63;1.48;;;15.90;45.30;;;;;;4945255;28;20120;-78
2023/03/19 12:15:23;;;;;;;5.22;1.30;;;15.80;45.10;;;;;;4938671;29;20115;-76
2023/03/19 12:18:23;;;;;;;3.83;1.48;;;16.00;45.50;;;;;;4949985;28;20042;-78
2023/03/19 12:21:15;;;;;;;3.35;1.10;;;16.30;44.90;;;;;;4955987;29;20082;-78
2023/03/19 12:24:02;;;;;;;4.65;1.25;;;16.30;44.20;;;;;;4939143;28;20112;-80
2023/03/19 12:26:49;;;;;;;5.15;1.30;;;16.20;45.20;;;;;;4957857;29;20027;-79
2023/03/19 12:29:26;;;;;;;2.53;0.95;;;16.30;45.70;;;;;;4940159;28;20030;-78
2023/03/19 12:32:04;;;;;;;5.65;1.20;;;16.50;45.00;;;;;;4928857;29;20047;-79
2023/03/19 12:34:46;;;;;;;4.55;1.38;;;16.40;43.40;;;;;;4944299;28;20181;-78
2023/03/19 12:37:16;;;;;;;5.22;1.13;;;16.10;43.30;;;;;;4936133;29;20465;-75
2023/03/19 12:40:21;;;;;;;6.10;1.33;;;15.90;44.60;;;;;;4934334;29;20030;-77
2023/03/19 12:42:46;;;;;;;3.92;1.55;;;15.90;44.30;;;;;;4931902;28;20036;-76
2023/03/19 12:45:31;;;;;;;3.80;1.27;;;15.80;45.20;;;;;;4935989;29;20028;-80
2023/03/19 12:48:03;;;;;;;4.53;1.25;;;15.50;44.00;;;;;;4933619;29;20051;-77
2023/03/19 12:50:30;;;;;;;4.20;1.10;;;15.60;43.90;;;;;;4937467;29;20035;-75
2023/03/19 12:52:59;;;;;;;5.25;1.50;;;15.70;44.60;;;;;;4933170;29;20040;-81
2023/03/19 12:55:37;;;;;;;3.63;1.00;;;16.00;45.80;;;;;;4911545;29;20032;-80
2023/03/19 12:58:17;;;;;;;6.28;1.35;;;16.30;45.80;;;;;;4935613;29;20031;-78
2023/03/19 13:01:07;;;;;;;4.03;0.90;;;16.30;43.80;;;;;;4931841;29;20031;-77
2023/03/19 13:03:48;;;;;;;4.43;1.33;;;16.30;42.90;;;;;;4930244;29;20035;-77
2023/03/19 13:06:46;;;;;;;2.13;1.00;;;16.20;43.70;;;;;;4931728;29;20068;-78
2023/03/19 13:09:34;;;;;;;2.30;1.02;;;16.20;44.30;;;;;;4922301;29;20063;-79
2023/03/19 13:12:28;;;;;;;3.78;0.80;;;16.20;43.30;;;;;;4934693;29;20032;-78
2023/03/19 13:15:01;;;;;;;3.20;1.35;;;16.30;44.60;;;;;;4934531;29;20470;-78
2023/03/19 13:17:53;;;;;;;5.22;1.38;;;16.20;44.10;;;;;;4933239;29;20034;-78
2023/03/19 13:20:19;;;;;;;4.97;1.25;;;15.90;44.10;;;;;;4932769;29;20028;-79
2023/03/19 13:22:53;;;;;;;3.53;1.08;;;15.90;44.90;;;;;;4931168;29;20107;-79
2023/03/19 13:25:59;;;;;;;8.50;1.60;;;15.90;43.40;;;;;;4934141;29;20039;-78
2023/03/19 13:28:33;;;;;;;4.68;1.13;;;16.00;43.80;;;;;;4932701;29;20561;-78
2023/03/19 13:31:16;;;;;;;3.65;1.17;;;15.90;43.70;;;;;;4936160;29;20051;-78
2023/03/19 13:34:01;;;;;;;3.45;0.82;;;15.90;44.10;;;;;;4954348;29;20103;-78
2023/03/19 13:36:29;;;;;;;6.05;1.30;;;15.90;44.70;;;;;;4938175;29;20028;-78
2023/03/19 13:38:58;;;;;;;3.63;1.02;;;15.80;45.30;;;;;;4954490;29;20109;-78
2023/03/19 13:41:38;;;;;;;3.25;0.82;;;15.80;44.50;;;;;;4953671;29;20078;-79
2023/03/19 13:44:32;;;;;;;5.03;1.02;;;15.80;46.10;;;;;;4955388;29;20035;-80
2023/03/19 13:47:22;;;;;;;1.73;0.90;;;15.80;47.30;;;;;;4950503;29;20061;-81
2023/03/19 13:50:15;;;;;;;1.77;0.80;;;15.80;45.20;;;;;;4938727;29;20486;-82
2023/03/19 13:52:46;;;;;;;2.47;1.20;;;15.80;42.90;;;;;;4953915;29;20027;-85
2023/03/19 13:55:25;;;;;;;4.13;1.38;;;15.70;43.10;;;;;;4929696;29;20393;-80
2023/03/19 13:58:11;;;;;;;3.88;0.93;;;15.50;43.30;;;;;;4956082;29;20019;-85
2023/03/19 14:00:45;;;;;;;4.07;0.90;;;15.50;44.40;;;;;;4951271;29;20070;-84
2023/03/19 14:03:29;;;;;;;3.65;1.20;;;15.60;44.80;;;;;;4952594;28;20483;-83
2023/03/19 14:05:56;;;;;;;5.20;1.33;;;15.70;45.30;;;;;;4941953;29;20035;-84
2023/03/19 14:08:46;;;;;;;6.45;1.42;;;15.80;46.00;;;;;;4942543;29;20031;-83
2023/03/19 14:11:22;;;;;;;2.38;1.00;;;15.80;45.40;;;;;;4955303;29;20023;-83
2023/03/19 14:13:50;;;;;;;7.10;1.40;;;15.80;44.90;;;;;;4957501;29;20534;-83
2023/03/19 14:16:25;;;;;;;4.03;1.10;;;15.80;45.60;;;;;;4935967;29;20027;-83
2023/03/19 14:18:55;;;;;;;6.35;1.27;;;15.80;45.80;;;;;;4958924;29;20495;-83
2023/03/19 14:21:50;;;;;;;4.47;1.38;;;15.80;45.20;;;;;;4940183;29;20605;-83
2023/03/19 14:24:42;;;;;;;5.45;1.80;;;15.80;45.50;;;;;;4942355;29;20058;-85
2023/03/19 14:27:21;;;;;;;3.33;0.95;;;15.80;44.70;;;;;;4950754;29;20114;-83
2023/03/19 14:29:48;;;;;;;3.10;1.07;;;15.80;45.50;;;;;;4941409;29;20031;-83
2023/03/19 14:32:23;;;;;;;2.85;0.85;;;15.90;45.50;;;;;;4944950;29;20055;-83
2023/03/19 14:34:49;;;;;;;5.88;1.25;;;15.90;44.80;;;;;;4953701;29;20023;-83
2023/03/19 14:37:24;;;;;;;5.60;0.90;;;15.80;44.60;;;;;;4959523;29;20107;-84
2023/03/19 14:40:15;;;;;;;4.95;0.95;;;15.80;45.30;;;;;;4947418;28;20111;-84
2023/03/19 14:42:50;;;;;;;2.75;1.17;;;16.00;45.00;;;;;;4938162;29;20086;-84
2023/03/19 14:45:52;;;;;;;4.70;1.48;;;16.20;44.80;;;;;;4956680;29;20042;-86
2023/03/19 14:48:36;;;;;;;7.28;1.15;;;16.20;44.70;;;;;;4929420;28;20043;-81
2023/03/19 14:51:30;;;;;;;3.50;1.20;;;16.00;44.40;;;;;;4919455;28;20031;-84
2023/03/19 14:54:17;;;;;;;3.50;1.50;;;15.90;44.10;;;;;;4936674;29;20043;-86
2023/03/19 14:56:46;;;;;;;4.55;1.08;;;15.80;44.70;;;;;;4966955;28;20030;-86
2023/03/19 14:59:14;;;;;;;4.35;1.00;;;15.70;45.10;;;;;;4955108;28;20506;-84
2023/03/19 15:01:43;;;;;;;5.15;1.10;;;15.70;45.50;;;;;;4957034;29;20019;-84
2023/03/19 15:04:11;;;;;;;3.88;0.90;;;15.70;45.40;;;;;;4951898;29;20087;-85
2023/03/19 15:06:59;;;;;;;6.68;1.38;;;15.80;44.80;;;;;;4953732;29;20051;-85
2023/03/19 15:09:31;;;;;;;4.18;1.00;;;15.80;44.70;;;;;;4952266;28;20031;-84
2023/03/19 15:12:15;;;;;;;2.95;1.13;;;15.80;45.30;;;;;;4946873;29;20059;-86
2023/03/19 15:15:08;;;;;;;2.58;1.20;;;15.90;45.90;;;;;;4938499;29;20031;-85
2023/03/19 15:17:38;;;;;;;3.80;1.50;;;15.80;45.70;;;;;;4934438;29;20027;-85
2023/03/19 15:20:20;;;;;;;5.47;1.47;;;15.70;45.10;;;;;;4948195;29;20090;-86
2023/03/19 15:23:00;;;;;;;3.58;1.77;;;15.70;46.50;;;;;;4940880;29;20126;-86
2023/03/19 15:25:26;;;;;;;4.57;1.08;;;15.70;46.30;;;;;;4952176;29;20027;-83
2023/03/19 15:31:00;;;;;;;5.03;1.10;;;15.70;46.10;;;;;;4952176;29;20071;-86
2023/03/19 15:33:37;;;;;;;9.15;1.73;;;15.70;47.00;;;;;;4937173;29;20067;-85
2023/03/19 15:36:28;;;;;;;2.33;0.82;;;15.70;46.70;;;;;;4933599;29;20494;-88
2023/03/19 15:39:10;;;;;;;3.65;0.90;;;15.70;46.90;;;;;;4927127;29;20103;-87
2023/03/19 15:41:42;;;;;;;5.72;1.55;;;15.70;46.50;;;;;;4929110;29;20027;-86
2023/03/19 15:44:25;;;;;;;4.45;1.42;;;15.60;46.60;;;;;;4938212;29;20087;-87
2023/03/19 15:46:50;;;;;;;2.35;1.35;;;15.60;46.60;;;;;;4941483;29;20046;-84
2023/03/19 15:49:28;;;;;;;8.10;1.40;;;15.50;47.50;;;;;;4925601;29;20043;-85
2023/03/19 15:51:59;;;;;;;1.92;1.05;;;15.40;47.90;;;;;;4933349;29;20024;-86
2023/03/19 15:54:26;;;;;;;4.03;1.30;;;15.30;48.10;;;;;;4939144;29;20035;-87
2023/03/19 15:56:52;;;;;;;3.75;1.27;;;15.30;48.70;;;;;;4946976;29;20018;-78
2023/03/19 15:59:20;;;;;;;2.70;1.27;;;15.30;48.70;;;;;;4937111;29;20498;-84
2023/03/19 16:01:46;;;;;;;6.65;1.55;;;15.30;48.70;;;;;;4925100;29;20027;-81
2023/03/19 16:04:33;;;;;;;4.50;1.20;;;15.30;48.60;;;;;;4944018;29;20038;-80
2023/03/19 16:07:00;;;;;;;8.77;1.58;;;15.20;49.10;;;;;;4928306;29;20031;-85
2023/03/19 16:09:33;;;;;;;3.65;1.55;;;15.30;49.80;;;;;;4928622;29;20565;-79
2023/03/19 16:12:00;;;;;;;6.75;1.40;;;15.30;49.70;;;;;;4948299;29;20074;-77
2023/03/19 16:14:34;;;;;;;4.80;1.40;;;15.40;49.00;;;;;;4946640;29;20115;-81
2023/03/19 16:17:15;;;;;;;3.22;1.10;;;15.30;49.30;;;;;;4935264;29;20522;-83
2023/03/19 16:19:57;;;;;;;5.18;1.20;;;15.30;50.10;;;;;;4902846;29;20039;-81
2023/03/19 16:22:27;;;;;;;5.70;1.77;;;15.20;50.20;;;;;;4924065;29;20011;-81
2023/03/19 16:24:54;;;;;;;6.07;1.60;;;15.20;50.50;;;;;;4918135;29;20056;-83
2023/03/19 16:27:50;;;;;;;4.85;1.50;;;15.10;50.90;;;;;;4925316;29;20064;-89
2023/03/19 16:30:26;;;;;;;7.13;1.50;;;15.10;50.80;;;;;;4915276;29;20040;-87
2023/03/19 16:33:01;;;;;;;6.47;1.95;;;15.10;50.90;;;;;;4908339;29;20051;-82
2023/03/19 16:35:29;;;;;;;6.97;1.13;;;15.00;51.30;;;;;;4927184;29;20032;-90
2023/03/19 16:38:27;;;;;;;3.70;1.20;;;14.90;51.80;;;;;;4912169;29;20083;-90
2023/03/19 16:41:16;;;;;;;4.55;1.98;;;14.90;51.80;;;;;;4927428;29;20031;-86
2023/03/19 16:43:48;;;;;;;5.68;1.42;;;14.80;52.00;;;;;;4920909;29;20439;-88
2023/03/19 16:46:15;;;;;;;6.50;1.35;;;14.80;52.10;;;;;;4926179;29;20039;-81
2023/03/19 16:48:41;;;;;;;3.90;1.55;;;14.80;52.10;;;;;;4933051;29;20026;-91
2023/03/19 16:51:16;;;;;;;3.30;1.00;;;14.70;52.10;;;;;;4916414;29;20031;-92
2023/03/19 16:53:43;;;;;;;5.10;1.50;;;14.70;52.10;;;;;;4925860;29;20039;-93
2023/03/19 16:56:13;;;;;;;7.05;1.50;;;14.60;52.30;;;;;;4927457;29;20039;-92
2023/03/19 16:58:43;;;;;;;7.32;1.20;;;14.60;52.40;;;;;;4939303;29;20035;-92
2023/03/19 17:01:19;;;;;;;3.10;1.30;;;14.50;52.70;;;;;;4939273;29;20410;-91
2023/03/19 17:03:45;;;;;;;4.53;1.13;;;14.60;53.30;;;;;;4930892;29;20027;-91
2023/03/19 17:06:13;;;;;;;7.80;1.52;;;14.50;53.50;;;;;;4934112;29;20036;-91
2023/03/19 17:08:39;;;;;;;7.43;1.67;;;14.40;53.20;;;;;;4923327;29;20163;-91
2023/03/19 17:11:11;;;;;;;4.82;1.05;;;14.40;53.40;;;;;;4922827;29;20044;-92
2023/03/19 17:13:40;;;;;;;4.90;2.00;;;14.30;53.80;;;;;;4918007;29;20027;-90
2023/03/19 17:16:07;;;;;;;6.07;1.40;;;14.30;53.90;;;;;;4923438;29;20126;-89
2023/03/19 17:18:40;;;;;;;7.28;1.55;;;14.20;54.10;;;;;;4922573;29;20054;-92
2023/03/19 17:21:16;;;;;;;9.38;1.65;;;14.20;54.60;;;;;;4941460;29;20152;-91
2023/03/19 17:23:42;;;;;;;6.18;1.30;;;14.10;54.30;;;;;;4921701;29;20036;-93
2023/03/19 17:26:27;;;;;;;5.97;1.35;;;14.10;54.80;;;;;;4922242;29;20036;-92
2023/03/19 17:28:54;;;;;;;5.72;1.38;;;14.10;54.60;;;;;;4928813;29;20042;-92
2023/03/19 17:31:30;;;;;;;6.95;1.40;;;14.10;54.90;;;;;;4925622;29;20079;-90
2023/03/19 17:34:02;;;;;;;3.47;1.13;;;14.00;54.80;;;;;;4941241;29;20110;-81
2023/03/19 17:36:28;;;;;;;3.97;1.50;;;13.90;55.00;;;;;;4941003;29;20035;-91
2023/03/19 17:38:54;;;;;;;7.75;1.90;;;13.80;55.50;;;;;;4942551;29;20026;-92
2023/03/19 17:41:20;;;;;;;7.43;1.65;;;13.70;55.50;;;;;;4942712;29;20019;-85
2023/03/19 17:43:46;;;;;;;6.45;2.00;;;13.70;56.30;;;;;;4944091;29;20106;-90
2023/03/19 17:46:18;;;;;;;8.57;2.22;;;13.60;56.60;;;;;;4949387;29;20393;-86
2023/03/19 17:48:46;;;;;;;6.90;2.08;;;13.60;56.90;;;;;;4940239;29;20027;-85
2023/03/19 17:51:11;;;;;;;6.32;1.65;;;13.60;56.90;;;;;;4936521;29;20039;-84
2023/03/19 17:53:38;;;;;;;11.13;3.33;;;13.50;57.10;;;;;;4974282;28;20027;-86
2023/03/19 17:56:04;;;;;;;5.65;1.70;;;13.50;57.30;;;;;;4954062;29;20050;-84
2023/03/19 17:58:30;;;;;;;6.72;1.90;;;13.40;57.10;;;;;;4948449;29;20051;-86
2023/03/19 18:00:56;;;;;;;2.70;1.88;;;13.40;57.50;;;;;;4942584;29;20027;-87
2023/03/19 18:03:23;;;;;;;3.47;1.67;;;13.30;57.20;;;;;;4939557;29;20027;-85
2023/03/19 18:05:49;;;;;;;6.10;1.88;;;13.30;57.40;;;;;;4939983;29;20039;-84
2023/03/19 18:08:18;;;;;;;11.43;2.60;;;13.20;57.30;;;;;;4935253;29;20035;-85
2023/03/19 18:10:44;;;;;;;6.18;1.70;;;13.10;57.40;;;;;;4959658;29;20031;-85
2023/03/19 18:13:10;;;;;;;8.75;2.50;;;13.00;57.80;;;;;;4954200;29;20526;-82
2023/03/19 18:15:39;;;;;;;6.07;1.75;;;13.00;58.00;;;;;;4954295;29;20066;-92
2023/03/19 18:18:06;;;;;;;6.97;1.77;;;12.90;58.10;;;;;;4944651;28;20027;-84
2023/03/19 18:20:36;;;;;;;5.35;1.95;;;12.90;58.10;;;;;;4951638;29;20050;-78
2023/03/19 18:23:02;;;;;;;6.75;2.97;;;12.80;58.10;;;;;;4945020;29;20042;-76
2023/03/19 18:25:31;;;;;;;7.15;2.90;;;12.80;58.40;;;;;;4949630;28;20042;-79
2023/03/19 18:27:56;;;;;;;10.00;3.78;;;12.70;58.40;;;;;;4935991;29;20039;-82
2023/03/19 18:30:23;;;;;;;8.77;2.30;;;12.80;58.50;;;;;;4953641;29;20403;-81
2023/03/19 18:33:01;;;;;;;10.50;3.33;;;12.70;58.60;;;;;;4924360;29;20110;-83
2023/03/19 18:35:29;;;;;;;10.38;3.47;;;12.70;58.60;;;;;;4916439;29;20526;-83
2023/03/19 18:37:56;;;;;;;8.82;3.35;;;12.70;58.60;;;;;;4924393;29;20020;-84
2023/03/19 18:40:26;;;;;;;11.23;3.22;;;12.70;58.80;;;;;;4918373;29;20091;-85
2023/03/19 18:42:52;;;;;;;12.52;4.13;;;12.70;58.70;;;;;;4905459;29;20111;-84
2023/03/19 18:45:19;;;;;;;13.88;4.97;;;12.70;59.00;;;;;;4922600;29;20063;-82
2023/03/19 18:47:47;;;;;;;15.80;6.47;;;12.50;59.10;;;;;;4903112;29;20032;-88
2023/03/19 18:50:25;;;;;;;8.13;4.50;;;12.40;59.40;;;;;;4920466;29;20079;-83